createdAt,value
2019-05-16T00:00:59.873Z,62.50
2019-05-16T00:03:29.147Z,62.80
2019-05-16T00:05:58.586Z,63.10
2019-05-16T00:08:28.510Z,63.60
2019-05-16T00:10:58.684Z,64.20
2019-05-16T00:13:28.173Z,64.50
2019-05-16T00:15:58.861Z,64.80
2019-05-16T00:18:28.498Z,64.90
2019-05-16T00:20:58.475Z,65.40
2019-05-16T00:23:28.922Z,65.70
2019-05-16T00:25:59.387Z,65.90
2019-05-16T00:28:28.774Z,66.00
2019-05-16T00:30:59.105Z,66.20
2019-05-16T00:33:28.808Z,66.40
2019-05-16T00:36:03.417Z,66.50
2019-05-16T00:38:30.478Z,66.80
2019-05-16T00:40:59.783Z,66.80
2019-05-16T00:43:29.102Z,66.90
2019-05-16T00:45:58.925Z,67.30
2019-05-16T00:48:28.952Z,67.60
2019-05-16T00:50:58.561Z,68.00
2019-05-16T00:53:28.867Z,68.20
2019-05-16T00:55:59.354Z,68.50
2019-05-16T00:58:29.903Z,68.60
2019-05-16T01:00:59.370Z,68.80
2019-05-16T01:03:29.180Z,68.90
2019-05-16T01:05:58.463Z,69.20
2019-05-16T01:08:28.298Z,69.50
2019-05-16T01:10:58.656Z,69.80
2019-05-16T01:13:28.130Z,70.10
2019-05-16T01:15:58.015Z,70.30
2019-05-16T01:18:28.766Z,70.60
2019-05-16T01:20:58.689Z,71.00
2019-05-16T01:23:28.360Z,71.70
2019-05-16T01:25:58.912Z,71.50
2019-05-16T01:28:28.526Z,71.50
2019-05-16T01:30:58.131Z,71.60
2019-05-16T01:33:28.070Z,71.60
2019-05-16T01:35:58.524Z,71.20
2019-05-16T01:38:29.083Z,70.90
2019-05-16T01:40:58.554Z,70.60
2019-05-16T01:43:28.393Z,70.30
2019-05-16T01:45:57.907Z,70.10
2019-05-16T01:48:29.161Z,69.60
2019-05-16T01:50:58.750Z,69.30
2019-05-16T01:53:28.053Z,69.10
2019-05-16T01:55:57.983Z,68.90
2019-05-16T01:58:29.005Z,68.70
2019-05-16T02:01:11.504Z,68.60
2019-05-16T02:03:29.473Z,68.50
2019-05-16T02:05:58.871Z,68.40
2019-05-16T02:08:29.227Z,68.30
2019-05-16T02:10:58.621Z,68.20
2019-05-16T02:13:28.660Z,68.30
2019-05-16T02:15:59.378Z,69.10
2019-05-16T02:18:29.014Z,68.20
2019-05-16T02:21:01.277Z,68.10
2019-05-16T02:23:29.422Z,67.90
2019-05-16T02:25:58.724Z,67.90
2019-05-16T02:28:33.639Z,67.80
2019-05-16T02:31:01.385Z,67.80
2019-05-16T02:33:31.619Z,67.80
2019-05-16T02:36:01.717Z,67.60
2019-05-16T02:38:31.965Z,67.60
2019-05-16T02:41:03.294Z,67.70
2019-05-16T02:43:32.576Z,67.60
2019-05-16T02:46:01.909Z,67.70
2019-05-16T02:48:35.515Z,67.80
2019-05-16T02:51:03.397Z,67.80
2019-05-16T02:53:32.690Z,67.90
2019-05-16T02:56:01.991Z,68.00
2019-05-16T02:58:31.335Z,68.10
2019-05-16T03:01:01.873Z,68.30
2019-05-16T03:03:32.080Z,68.20
2019-05-16T03:06:02.287Z,68.30
2019-05-16T03:08:32.732Z,68.50
2019-05-16T03:11:02.572Z,68.60
2019-05-16T03:13:34.187Z,68.70
2019-05-16T03:16:06.527Z,68.70
2019-05-16T03:18:36.575Z,68.70
2019-05-16T03:21:11.077Z,68.80
2019-05-16T03:23:41.978Z,68.80
2019-05-16T03:26:11.912Z,69.00
2019-05-16T03:28:41.591Z,68.90
2019-05-16T03:31:14.759Z,69.00
2019-05-16T03:33:49.862Z,69.00
2019-05-16T03:36:14.528Z,69.10
2019-05-16T03:38:43.868Z,69.20
2019-05-16T03:41:13.138Z,69.30
2019-05-16T03:43:42.439Z,69.30
2019-05-16T03:46:12.154Z,69.40
2019-05-16T03:48:41.565Z,69.40
2019-05-16T03:51:11.545Z,69.40
2019-05-16T03:53:40.906Z,69.50
2019-05-16T03:56:11.159Z,69.50
2019-05-16T03:58:41.759Z,69.60
2019-05-16T04:01:11.698Z,69.90
2019-05-16T04:03:41.667Z,70.00
2019-05-16T04:06:12.255Z,70.10
2019-05-16T04:08:41.641Z,70.30
2019-05-16T04:11:12.050Z,70.40
2019-05-16T04:13:41.648Z,70.50
2019-05-16T04:16:11.891Z,70.40
2019-05-16T04:18:42.092Z,70.90
2019-05-16T04:21:12.055Z,71.10
2019-05-16T04:23:42.066Z,71.40
2019-05-16T04:26:11.739Z,71.40
2019-05-16T04:28:41.516Z,71.40
2019-05-16T04:31:11.192Z,71.40
2019-05-16T04:33:41.537Z,71.60
2019-05-16T04:36:11.319Z,71.70
2019-05-16T04:38:46.662Z,71.50
2019-05-16T04:41:13.867Z,71.70
2019-05-16T04:43:43.149Z,71.70
2019-05-16T04:46:12.425Z,71.80
2019-05-16T04:48:42.075Z,71.80
2019-05-16T04:51:11.477Z,71.90
2019-05-16T04:53:42.474Z,72.10
2019-05-16T04:56:11.731Z,72.00
2019-05-16T04:58:41.211Z,72.30
2019-05-16T05:01:11.308Z,72.50
2019-05-16T05:03:51.327Z,72.20
2019-05-16T05:06:11.883Z,72.20
2019-05-16T05:08:54.496Z,72.20
2019-05-16T05:11:12.133Z,72.10
2019-05-16T05:13:41.479Z,71.80
2019-05-16T05:16:10.867Z,71.40
2019-05-16T05:18:40.836Z,71.00
2019-05-16T05:21:11.678Z,70.60
2019-05-16T05:23:41.206Z,70.20
2019-05-16T05:26:10.953Z,69.70
2019-05-16T05:28:40.481Z,69.60
2019-05-16T05:31:10.795Z,69.30
2019-05-16T05:33:41.642Z,69.00
2019-05-16T05:36:12.370Z,68.80
2019-05-16T05:38:43.065Z,68.40
2019-05-16T05:41:12.350Z,68.40
2019-05-16T05:43:41.687Z,68.30
2019-05-16T05:46:11.300Z,67.80
2019-05-16T05:48:41.161Z,67.80
2019-05-16T05:51:11.306Z,67.70
2019-05-16T05:53:40.899Z,67.60
2019-05-16T05:56:11.323Z,67.60
2019-05-16T05:58:40.909Z,67.50
2019-05-16T06:01:11.107Z,67.40
2019-05-16T06:03:40.703Z,67.40
2019-05-16T06:06:10.497Z,67.60
2019-05-16T06:08:40.930Z,67.80
2019-05-16T06:11:11.482Z,67.90
2019-05-16T06:13:40.760Z,68.10
2019-05-16T06:16:10.862Z,68.00
2019-05-16T06:18:41.390Z,68.10
2019-05-16T06:21:11.522Z,68.40
2019-05-16T06:23:41.035Z,68.50
2019-05-16T06:26:12.241Z,68.30
2019-05-16T06:28:41.519Z,68.00
2019-05-16T06:31:13.822Z,67.70
2019-05-16T06:33:41.847Z,67.60
2019-05-16T06:36:11.178Z,67.50
2019-05-16T06:38:40.707Z,67.40
2019-05-16T06:41:10.655Z,67.00
2019-05-16T06:43:41.275Z,66.70
2019-05-16T06:46:10.987Z,66.60
2019-05-16T06:48:40.534Z,66.40
2019-05-16T06:51:10.750Z,65.60
2019-05-16T06:53:40.533Z,64.50
2019-05-16T06:56:10.464Z,64.10
2019-05-16T06:58:47.609Z,63.80
2019-05-16T07:01:10.921Z,63.70
2019-05-16T07:03:40.305Z,63.00
2019-05-16T07:06:13.891Z,62.00
2019-05-16T07:08:40.534Z,61.40
2019-05-16T07:11:10.559Z,61.00
2019-05-16T07:13:40.631Z,60.70
2019-05-16T07:16:10.136Z,60.70
2019-05-16T07:18:40.209Z,60.30
2019-05-16T07:21:10.922Z,60.20
2019-05-16T07:23:40.642Z,59.90
2019-05-16T07:26:10.090Z,59.00
2019-05-16T07:28:40.658Z,58.60
2019-05-16T07:31:17.453Z,58.50
2019-05-16T07:33:41.166Z,58.50
2019-05-16T07:36:10.514Z,58.60
2019-05-16T07:38:40.167Z,58.80
2019-05-16T07:41:10.980Z,58.80
2019-05-16T07:43:40.625Z,58.60
2019-05-16T07:46:11.176Z,58.30
2019-05-16T07:48:40.646Z,58.30
2019-05-16T07:51:10.474Z,58.30
2019-05-16T07:53:40.407Z,58.10
2019-05-16T07:56:10.603Z,57.90
2019-05-16T07:58:41.513Z,57.80
2019-05-16T08:01:12.517Z,57.60
2019-05-16T08:03:44.075Z,57.40
2019-05-16T08:06:12.898Z,57.00
2019-05-16T08:08:42.205Z,56.90
2019-05-16T08:11:12.287Z,56.80
2019-05-16T08:13:41.730Z,56.70
2019-05-16T08:16:11.142Z,56.60
2019-05-16T08:18:44.958Z,56.50
2019-05-16T08:21:16.362Z,56.50
2019-05-16T08:23:42.558Z,56.00
2019-05-16T08:26:11.861Z,54.90
2019-05-16T08:28:41.765Z,55.10
2019-05-16T08:31:11.939Z,54.90
2019-05-16T08:33:41.887Z,54.80
2019-05-16T08:36:12.112Z,55.00
2019-05-16T08:43:44.884Z,55.30
2019-05-16T08:46:14.216Z,55.60
2019-05-16T08:48:43.579Z,55.40
2019-05-16T08:50:11.687Z,55.30
2019-05-16T08:51:13.040Z,55.50
2019-05-16T08:56:13.461Z,55.50
2019-05-16T08:58:42.818Z,55.80
2019-05-16T09:01:14.744Z,55.90
2019-05-16T09:03:43.337Z,56.00
2019-05-16T09:06:12.635Z,55.80
2019-05-16T09:08:42.040Z,55.90
2019-05-16T09:10:21.440Z,55.70
2019-05-16T09:10:39.043Z,55.10
2019-05-16T09:11:29.858Z,56.20
2019-05-16T09:13:42.338Z,56.40
2019-05-16T09:16:11.623Z,56.60
2019-05-16T09:18:45.301Z,56.70
2019-05-16T09:21:11.941Z,57.00
2019-05-16T09:23:41.329Z,56.90
2019-05-16T09:26:10.705Z,56.60
2019-05-16T09:28:41.696Z,56.20
2019-05-16T09:31:11.500Z,56.10
2019-05-16T09:33:42.450Z,55.40
2019-05-16T09:36:11.979Z,54.90
2019-05-16T09:38:41.238Z,55.00
2019-05-16T09:41:10.547Z,54.80
2019-05-16T09:43:39.882Z,54.70
2019-05-16T09:46:09.240Z,54.80
2019-05-16T09:48:38.540Z,54.40
2019-05-16T09:51:07.841Z,54.20
2019-05-16T09:53:37.232Z,54.10
2019-05-16T09:56:07.206Z,53.90
2019-05-16T09:58:37.223Z,53.90
2019-05-16T10:01:06.923Z,54.10
2019-05-16T10:03:37.191Z,54.10
2019-05-16T10:06:07.923Z,54.60
2019-05-16T10:08:37.644Z,53.40
2019-05-16T10:11:07.033Z,53.20
2019-05-16T10:13:37.510Z,53.00
2019-05-16T10:16:07.411Z,53.40
2019-05-16T10:18:37.095Z,53.50
2019-05-16T10:21:08.180Z,53.90
2019-05-16T10:23:37.594Z,53.70
2019-05-16T10:26:06.911Z,54.10
2019-05-16T10:28:38.227Z,54.40
2019-05-16T10:31:07.312Z,54.60
2019-05-16T10:33:39.008Z,54.10
2019-05-16T10:36:08.407Z,53.50
2019-05-16T10:38:38.100Z,53.90
2019-05-16T10:41:08.532Z,53.00
2019-05-16T10:43:37.811Z,52.80
2019-05-16T10:46:07.139Z,52.40
2019-05-16T10:48:37.679Z,53.10
2019-05-16T10:51:07.862Z,53.10
2019-05-16T10:54:00.619Z,52.70
2019-05-16T10:56:08.439Z,52.40
2019-05-16T10:58:58.019Z,51.60
2019-05-16T11:01:22.110Z,51.50
2019-05-16T11:03:39.936Z,51.60
2019-05-16T11:06:24.395Z,51.60
2019-05-16T11:08:40.486Z,51.50
2019-05-16T11:11:09.767Z,50.70
2019-05-16T11:13:39.063Z,51.20
2019-05-16T11:16:09.620Z,50.60
2019-05-16T11:18:39.086Z,50.90
2019-05-16T11:21:09.371Z,51.00
2019-05-16T11:23:38.708Z,51.20
2019-05-16T11:26:08.024Z,51.60
2019-05-16T11:28:37.310Z,51.40
2019-05-16T11:31:07.627Z,51.80
2019-05-16T11:33:37.171Z,52.20
2019-05-16T11:36:08.155Z,51.80
2019-05-16T11:38:37.890Z,51.10
2019-05-16T11:41:07.555Z,51.50
2019-05-16T11:43:36.989Z,51.90
2019-05-16T11:46:06.334Z,52.30
2019-05-16T11:48:37.747Z,52.30
2019-05-16T11:51:07.307Z,52.10
2019-05-16T11:53:37.928Z,52.30
2019-05-16T11:56:08.363Z,51.80
2019-05-16T11:58:37.952Z,51.30
2019-05-16T12:01:07.654Z,51.30
2019-05-16T12:03:37.463Z,50.90
2019-05-16T12:06:10.893Z,51.70
2019-05-16T12:08:37.947Z,51.80
2019-05-16T12:11:07.243Z,52.40
2019-05-16T12:13:37.054Z,52.50
2019-05-16T12:16:07.526Z,51.90
2019-05-16T12:18:37.474Z,51.30
2019-05-16T12:21:07.616Z,51.00
2019-05-16T12:23:38.184Z,50.90
2019-05-16T12:26:08.021Z,51.10
2019-05-16T12:28:38.426Z,50.80
2019-05-16T12:31:07.700Z,50.10
2019-05-16T12:33:37.769Z,49.90
2019-05-16T12:36:07.743Z,50.70
2019-05-16T12:38:37.957Z,50.70
2019-05-16T12:41:07.706Z,50.50
2019-05-16T12:43:48.205Z,50.70
2019-05-16T12:46:08.040Z,50.30
2019-05-16T12:48:37.656Z,50.40
2019-05-16T12:51:08.457Z,50.80
2019-05-16T12:53:38.093Z,51.10
2019-05-16T12:56:07.363Z,50.60
2019-05-16T12:58:41.661Z,50.00
2019-05-16T13:01:07.926Z,49.90
2019-05-16T13:03:38.004Z,50.20
2019-05-16T13:06:07.419Z,50.20
2019-05-16T13:08:37.465Z,49.80
2019-05-16T13:11:08.122Z,50.00
2019-05-16T13:13:37.835Z,49.40
2019-05-16T13:16:07.796Z,49.20
2019-05-16T13:18:37.205Z,49.20
2019-05-16T13:21:07.007Z,49.40
2019-05-16T13:23:36.330Z,49.10
2019-05-16T13:26:07.277Z,49.20
2019-05-16T13:28:37.795Z,49.30
2019-05-16T13:31:07.847Z,49.30
2019-05-16T13:33:37.329Z,49.90
2019-05-16T13:36:07.495Z,49.30
2019-05-16T13:38:37.053Z,48.80
2019-05-16T13:41:07.412Z,49.30
2019-05-16T13:43:37.951Z,48.90
2019-05-16T13:46:07.400Z,49.30
2019-05-16T13:48:37.608Z,49.00
2019-05-16T13:51:14.708Z,49.20
2019-05-16T13:53:39.359Z,49.40
2019-05-16T13:56:13.133Z,49.20
2019-05-16T13:58:39.620Z,49.90
2019-05-16T14:01:08.911Z,50.20
2019-05-16T14:03:38.259Z,50.10
2019-05-16T14:06:07.552Z,50.30
2019-05-16T14:08:37.424Z,51.00
2019-05-16T14:11:10.179Z,51.20
2019-05-16T14:13:37.964Z,51.30
2019-05-16T14:16:07.534Z,51.30
2019-05-16T14:18:37.875Z,52.00
2019-05-16T14:21:07.483Z,52.50
2019-05-16T14:23:38.064Z,52.80
2019-05-16T14:26:07.632Z,52.80
2019-05-16T14:28:37.723Z,53.60
2019-05-16T14:31:07.579Z,53.20
2019-05-16T14:33:36.968Z,53.20
2019-05-16T14:36:07.345Z,53.20
2019-05-16T14:38:37.451Z,53.30
2019-05-16T14:41:08.015Z,53.60
2019-05-16T14:43:37.653Z,53.60
2019-05-16T14:46:09.400Z,53.70
2019-05-16T14:48:38.148Z,54.20
2019-05-16T14:51:07.501Z,54.70
2019-05-16T14:53:37.923Z,55.20
2019-05-16T14:56:07.465Z,55.30
2019-05-16T14:58:37.811Z,55.10
2019-05-16T15:01:07.637Z,55.30
2019-05-16T15:03:37.187Z,55.30
2019-05-16T15:06:08.471Z,55.40
2019-05-16T15:08:37.753Z,55.30
2019-05-16T15:11:07.584Z,55.70
2019-05-16T15:13:37.355Z,55.80
2019-05-16T15:16:07.620Z,56.10
2019-05-16T15:18:38.377Z,56.60
2019-05-16T15:21:08.900Z,56.60
2019-05-16T15:23:38.418Z,56.70
2019-05-16T15:26:09.378Z,57.00
2019-05-16T15:28:38.880Z,57.20
2019-05-16T15:31:08.171Z,57.20
2019-05-16T15:33:37.486Z,57.60
2019-05-16T15:36:08.522Z,57.60
2019-05-16T15:38:37.795Z,59.10
2019-05-16T15:41:08.191Z,60.00
2019-05-16T15:43:37.938Z,60.90
2019-05-16T15:46:08.330Z,61.50
2019-05-16T15:48:38.856Z,62.00
2019-05-16T15:51:09.162Z,61.60
2019-05-16T15:53:39.169Z,61.30
2019-05-16T15:56:10.549Z,60.70
2019-05-16T15:58:39.504Z,60.40
2019-05-16T16:01:09.778Z,60.10
2019-05-16T16:03:39.055Z,60.30
2019-05-16T16:06:08.368Z,60.30
2019-05-16T16:08:37.716Z,60.40
2019-05-16T16:11:07.520Z,60.30
2019-05-16T16:13:37.627Z,60.40
2019-05-16T16:16:09.924Z,60.30
2019-05-16T16:18:38.064Z,60.40
2019-05-16T16:21:07.717Z,60.70
2019-05-16T16:23:37.489Z,60.40
2019-05-16T16:26:08.099Z,60.20
2019-05-16T16:28:38.187Z,60.40
2019-05-16T16:31:07.848Z,60.50
2019-05-16T16:33:37.652Z,60.60
2019-05-16T16:36:07.822Z,60.30
2019-05-16T16:38:37.475Z,60.10
2019-05-16T16:41:08.073Z,60.30
2019-05-16T16:43:37.584Z,60.50
2019-05-16T16:46:12.949Z,60.30
2019-05-16T16:48:38.002Z,60.00
2019-05-16T16:51:07.358Z,60.00
2019-05-16T16:53:37.870Z,60.30
2019-05-16T16:56:07.698Z,59.90
2019-05-16T16:58:37.470Z,59.80
2019-05-16T17:01:07.602Z,60.10
2019-05-16T17:03:37.311Z,60.20
2019-05-16T17:06:06.626Z,60.10
2019-05-16T17:08:37.673Z,60.10
2019-05-16T17:11:07.846Z,60.60
2019-05-16T17:13:37.272Z,60.60
2019-05-16T17:16:21.168Z,60.80
2019-05-16T17:18:37.550Z,60.70
2019-05-16T17:21:07.881Z,60.90
2019-05-16T17:23:37.679Z,61.00
2019-05-16T17:26:07.426Z,61.00
2019-05-16T17:28:37.466Z,60.70
2019-05-16T17:31:07.294Z,60.30
2019-05-16T17:33:38.057Z,60.10
2019-05-16T17:36:09.263Z,60.00
2019-05-16T17:38:38.751Z,60.00
2019-05-16T17:41:08.025Z,60.10
2019-05-16T17:43:38.295Z,60.20
2019-05-16T17:46:07.600Z,60.20
2019-05-16T17:48:38.210Z,60.30
2019-05-16T17:51:07.753Z,60.30
2019-05-16T17:53:37.435Z,60.10
2019-05-16T17:56:07.131Z,60.10
2019-05-16T17:58:36.562Z,60.20
2019-05-16T18:01:07.706Z,60.40
2019-05-16T18:03:37.416Z,60.50
2019-05-16T18:06:06.937Z,60.70
2019-05-16T18:08:37.480Z,60.50
2019-05-16T18:11:07.417Z,60.70
2019-05-16T18:13:37.280Z,61.00
2019-05-16T18:16:07.570Z,61.30
2019-05-16T18:18:37.632Z,61.50
2019-05-16T18:21:07.312Z,61.90
2019-05-16T18:23:37.087Z,61.90
2019-05-16T18:26:07.821Z,62.20
2019-05-16T18:28:37.389Z,62.30
2019-05-16T18:31:06.768Z,62.40
2019-05-16T18:33:37.270Z,62.40
2019-05-16T18:36:07.616Z,62.40
2019-05-16T18:38:37.403Z,62.50
2019-05-16T18:41:07.858Z,62.80
2019-05-16T18:43:37.405Z,63.10
2019-05-16T18:46:07.395Z,64.00
2019-05-16T18:48:36.896Z,64.90
2019-05-16T18:51:06.621Z,65.40
2019-05-16T18:53:37.424Z,66.20
2019-05-16T18:56:07.771Z,66.70
2019-05-16T18:58:37.525Z,67.20
2019-05-16T19:01:06.941Z,67.60
2019-05-16T19:03:36.242Z,68.00
2019-05-16T19:06:07.536Z,68.30
2019-05-16T19:08:36.594Z,68.80
2019-05-16T19:11:07.425Z,69.30
2019-05-16T19:13:37.117Z,69.60
2019-05-16T19:16:07.484Z,69.70
2019-05-16T19:18:37.032Z,70.20
2019-05-16T19:21:07.545Z,70.30
2019-05-16T19:23:37.681Z,70.70
2019-05-16T19:26:07.437Z,70.90
2019-05-16T19:28:37.373Z,71.10
2019-05-16T19:31:06.960Z,71.10
2019-05-16T19:33:36.260Z,71.40
2019-05-16T19:36:07.289Z,71.40
2019-05-16T19:38:37.418Z,71.30
2019-05-16T19:41:08.112Z,71.40
2019-05-16T19:43:38.726Z,71.50
2019-05-16T19:46:08.015Z,71.70
2019-05-16T19:48:37.321Z,71.70
2019-05-16T19:51:07.406Z,71.80
2019-05-16T19:53:37.974Z,72.10
2019-05-16T19:56:07.457Z,72.20
2019-05-16T19:58:37.992Z,72.40
2019-05-16T20:01:07.279Z,72.70
2019-05-16T20:03:36.645Z,73.50
2019-05-16T20:06:07.638Z,72.70
2019-05-16T20:08:38.270Z,73.10
2019-05-16T20:11:07.698Z,73.10
2019-05-16T20:13:36.989Z,73.50
2019-05-16T20:16:06.266Z,73.10
2019-05-16T20:18:37.379Z,73.30
2019-05-16T20:21:06.530Z,73.50
2019-05-16T20:23:37.009Z,73.60
2019-05-16T20:26:07.809Z,73.90
2019-05-16T20:28:37.371Z,74.00
2019-05-16T20:31:08.147Z,74.10
2019-05-16T20:33:37.834Z,74.30
2019-05-16T20:36:09.463Z,74.40
2019-05-16T20:38:38.149Z,74.60
2019-05-16T20:41:07.972Z,74.70
2019-05-16T20:43:37.294Z,74.80
2019-05-16T20:46:07.262Z,74.90
2019-05-16T20:48:37.732Z,75.00
2019-05-16T20:51:08.607Z,76.00
2019-05-16T20:53:37.905Z,75.30
2019-05-16T20:56:08.146Z,75.40
2019-05-16T20:58:37.435Z,75.50
2019-05-16T21:01:07.155Z,75.60
2019-05-16T21:03:37.831Z,75.70
2019-05-16T21:06:08.995Z,75.70
2019-05-16T21:08:38.616Z,75.90
2019-05-16T21:11:07.892Z,75.80
2019-05-16T21:13:37.178Z,76.00
2019-05-16T21:16:07.415Z,76.10
2019-05-16T21:18:37.720Z,76.30
2019-05-16T21:21:07.696Z,76.50
2019-05-16T21:23:37.234Z,76.60
2019-05-16T21:26:07.626Z,76.90
2019-05-16T21:28:37.065Z,77.20
2019-05-16T21:31:07.404Z,77.20
2019-05-16T21:33:36.942Z,77.40
2019-05-16T21:36:07.206Z,77.40
2019-05-16T21:38:36.675Z,77.50
2019-05-16T21:41:07.262Z,77.90
2019-05-16T21:43:37.681Z,78.50
2019-05-16T21:46:07.358Z,78.90
2019-05-16T21:48:37.914Z,79.30
2019-05-16T21:51:08.174Z,79.90
2019-05-16T21:53:38.418Z,80.60
2019-05-16T21:56:07.704Z,81.20
2019-05-16T21:58:37.252Z,81.90
2019-05-16T22:01:08.751Z,82.50
2019-05-16T22:03:39.683Z,83.90
2019-05-16T22:06:08.990Z,83.50
2019-05-16T22:08:38.825Z,83.70
2019-05-16T22:11:09.803Z,84.30
2019-05-16T22:13:40.250Z,84.40
2019-05-16T22:16:09.682Z,84.40
2019-05-16T22:18:38.955Z,84.50
2019-05-16T22:21:08.439Z,84.70
2019-05-16T22:23:37.723Z,84.80
2019-05-16T22:26:07.835Z,85.00
2019-05-16T22:28:37.423Z,85.30
2019-05-16T22:31:07.515Z,85.60
2019-05-16T22:33:37.443Z,85.70
2019-05-16T22:36:07.227Z,85.90
2019-05-16T22:38:36.647Z,86.20
2019-05-16T22:41:06.953Z,86.40
2019-05-16T22:43:37.197Z,86.60
2019-05-16T22:46:09.970Z,87.00
2019-05-16T22:48:38.666Z,87.10
2019-05-16T22:51:07.960Z,87.40
2019-05-16T22:53:37.242Z,87.60
2019-05-16T22:56:07.428Z,87.80
2019-05-16T22:58:37.071Z,88.00
2019-05-16T23:01:07.111Z,88.20
2019-05-16T23:03:38.007Z,88.40
2019-05-16T23:06:07.903Z,88.70
2019-05-16T23:08:37.296Z,88.70
2019-05-16T23:11:07.264Z,89.00
2019-05-16T23:13:36.911Z,89.00
2019-05-16T23:16:06.790Z,89.20
2019-05-16T23:18:37.620Z,89.40
2019-05-16T23:21:07.011Z,89.40
2019-05-16T23:23:37.161Z,89.60
2019-05-16T23:26:06.818Z,89.90
2019-05-16T23:28:36.856Z,89.90
2019-05-16T23:31:06.548Z,90.00
2019-05-16T23:33:36.865Z,90.00
2019-05-16T23:36:07.379Z,90.00
2019-05-16T23:38:36.970Z,90.10
2019-05-16T23:41:06.838Z,90.20
2019-05-16T23:43:37.563Z,90.20
2019-05-16T23:46:07.215Z,90.20
2019-05-16T23:48:36.733Z,90.30
2019-05-16T23:51:07.802Z,90.30
2019-05-16T23:53:37.254Z,90.30
2019-05-16T23:56:07.370Z,90.40
2019-05-16T23:58:37.218Z,90.40
